Logo AVAMET
Benvolgut visitant, si us plau, ingressa Recuperar contrasenya

les Useres

Dades diàries. Acumulats / Últims 30 dies disponibles

Data Temperatura (°C) Humitat rel. (%) Pressió rel. (hPa) Vent (km/h) Precipitació
Mínima Mitjana Màxima Amplitud
tèrmica
Mínima Mitjana Màxima Mínima Mitjana Màxima Predom. Mitjana Ràfega
màxima
Total
(mm)
Índex-n
Mínima Mitjana Màxima Mínima Mitjana Màxima n
0 a 1
P0 max
mm 5'
Dades mensuals acumulades fins l'últim dia disponible
11/2019 7,0 10,8 17,0 14,1 12,4 17,9 25,4 18,4 29 51 83 995 1.006 1.018   11,3 78,9 1,8
Dades anuals acumulades fins l'últim dia disponible
2019 1,8 13,5 25,9 17,7 9,1 22,5 38,4 36,6 7 58 97 987 1.015 1.034   7,5 122,3 267,4
Últims 30 dies disponibles
15-11-2019 7,0     9,2     12,4 5,4 41 49 66 997 1.000 1.004 NW 7,4 41,8 0,0
14-11-2019 7,4     10,8     13,9 6,5 29 55 70 995 999 1.007 WSW 7,7 45,1 0,0
13-11-2019 7,9     12,3     16,8 8,9 33 59 83 1.002 1.006 1.009 NNW 6,0 45,1 1,8
12-11-2019 10,6     12,7     15,7 5,1 39 45 54 1.007 1.009 1.010 NNW 14,8 64,4 0,0
11-11-2019 8,9     12,2     15,7 6,8 38 45 53 1.009 1.011 1.013 NNW 15,9 54,7 0,0
10-11-2019 8,8     10,8     14,1 5,3 40 47 63 1.008 1.009 1.012 NW 17,5 57,9 0,0
09-11-2019 10,8     12,9     15,1 4,3 42 47 54 1.010 1.013 1.016 NW 16,9 78,9 0,0
08-11-2019 7,3     11,4     15,3 8,0 33 43 53 1.006 1.009 1.012 NW 14,3 74,0 0,0
07-11-2019 9,1     13,7     19,9 10,8 34 50 62 1.004 1.007 1.010 WNW 5,5 46,7 0,0
05-11-2019 12,4     15,3     18,2 5,8 36 50 65 1.002 1.003 1.005 OSO 11,4 46,7 0,0
04-11-2019 12,9     17,9     22,4 9,5 40 52 64 1.002 1.005 1.007 SW 11,3 53,1 0,0
03-11-2019 14,7     17,8     21,0 6,3 31 48 62 995 1.000 1.007 NW 14,6 67,6 0,0
02-11-2019 17,0     20,4     25,4 8,4 41 57 69 1.000 1.005 1.010 SW 9,8 41,8 0,0
01-11-2019 15,7     20,4     24,7 9,0 53 60 68 1.010 1.014 1.018 SE 5,0 24,1 0,0
31-10-2019 17,4     20,1     24,3 6,9 41 57 66 1.017 1.018 1.020 OSO 5,2 37,0 0,0
30-10-2019 16,2     19,4     24,1 7,9 51 63 80 1.017 1.018 1.019 SE 4,7 27,4 0,0
29-10-2019 13,6     17,9     23,4 9,8 52 70 83 1.014 1.015 1.018 SE 3,4 27,4 0,0
28-10-2019 13,4     15,8     19,3 5,9 71 82 90 1.015 1.016 1.019 SE 1,9 14,5 0,0
27-10-2019 12,4     16,3     21,4 9,0 57 81 93 1.019 1.020 1.021 SE 4,2 29,0 0,0
26-10-2019 13,2     16,9     22,2 9,0 58 71 91 1.019 1.020 1.021 SE 3,4 22,5 0,0
25-10-2019 13,1     17,6     22,2 9,1 45 56 65 1.019 1.020 1.021 SE 6,3 29,0 0,0
24-10-2019 10,0     14,6     19,9 9,9 46 59 68 1.008 1.014 1.020 SE 5,5 27,4 0,0
23-10-2019 9,7     13,3     18,1 8,4 48 73 92 1.002 1.005 1.008 SE 5,5 37,0 0,4
22-10-2019 11,2     12,7     14,3 3,1 66 76 87 1.003 1.009 1.017 NNW 12,4 56,3 21,6
21-10-2019 12,0     14,1     17,4 5,4 55 63 75 1.012 1.015 1.017 NW 7,6 37,0 0,0
20-10-2019 12,7     16,6     18,5 5,8 43 64 88 1.003 1.006 1.012 SW 7,4 43,5 1,6
19-10-2019 14,7     19,9     25,3 10,6 41 62 83 1.005 1.007 1.011 SW 9,5 53,1 0,0
18-10-2019 15,7     20,2     25,7 10,0 49 62 75 1.011 1.013 1.016 SE 4,3 27,4 0,0
17-10-2019 13,5     18,7     25,2 11,7 35 55 70 1.014 1.015 1.016 SE 3,4 22,5 0,0
16-10-2019 12,8     17,4     22,8 10,0 32 50 67 1.015 1.017 1.019 SE 6,3 32,2 0,0
Últims 13 mesos disponibles
10/2019 9,7 14,8 18,2 18,7 14,3 23,3 30,4 20,7 43 65 82 1.005 1.015 1.020 SE 6,0 56,3 24,8
09/2019 12,8 17,8 20,5 21,7 19,6 26,3 30,6 17,8 51 67 81 1.008 1.016 1.025 SE 7,5 66,0 33,8
08/2019 17,3 20,3 25,9 24,7 23,8 29,9 36,4 19,1 48 65 80 1.009 1.014 1.019 SE 6,4 66,0 47,0
07/2019 19,3 20,9 23,3 25,6 25,5 31,0 35,1 15,8 37 55 71 1.004 1.012 1.019 SE 6,9 53,1 12,8
06/2019 10,3 16,8 23,7 21,7 18,7 26,9 38,4 28,1 26 54 72 1.006 1.013 1.020 SE 7,4 61,2 0,2
05/2019 8,5 12,2 17,1 16,8 15,9 21,9 28,2 19,7 41 61 85 1.003 1.013 1.022 SE 7,5 77,2 31,4
04/2019 5,8 9,7 12,3 13,3 12,8 17,8 25,7 19,9 39 62 88 997 1.011 1.023 SE 9,5 62,8 95,8
03/2019 5,1 9,2 14,7 13,7 10,2 18,8 25,7 20,6 35 50 82 1.008 1.021 1.028 SE 7,4 62,8 19,6
02/2019 3,4 7,2 13,7 11,4 9,1 16,6 24,6 21,2 33 57 79 990 1.023 1.032 SE 7,2 122,3 0,0
01/2019 1,8 6,6 10,7 10,2 9,7 14,4 19,8 18,0 22 52 77 998 1.017 1.029 SE 7,8 99,8 0,2
12/2018 5,2 9,1 12,7 12,6 11,7 16,7 22,4 17,2 31 64 85 1.006 1.023 1.029 SE 4,1 80,5 9,2
11/2018 5,9 9,7 14,1 12,7 11,8 16,3 20,8 14,9 45 71 94 1.000 1.013 1.022 NNW 5,7 91,7 133,8
10/2018 6,7 13,4 17,6 16,9 11,2 21,1 26,8 20,1 36 68 94 997 1.013 1.024 SE 6,6 82,1 240,4
Tots els anys disponibles
Temperatura (°C)
Humitat relativa (%)
Velocitat del vent i ràfega màxima (km/h)
Direcció del vent (°)
Pressió (hPa)
Precipitació (mm)
Nota sobre les dades: s'avisa a l'usuari de la provisionalitat i no oficialitat d'aquestes dades
Logo AVAMET blanc
Web allotjada a Sollutia
Llicència de Creative CommonsLa web d'AVAMET i els seus continguts estan subjectes a una llicència de
Reconeixement - No Comercial - Compartir igual
Últimes estacions: Xàbia - Alt de la Granadella (Soci), Villena - Sierra de Salinas (Soci), Sueca - Centre (Inforatge), Xàbia - La Plana (Soci), Banyeres de Mariola - Molí Sol (Soci), Villena - Villa Ventín (Soci), Benissa - Convent (Soci), - - -